Oruro, Bolivie

08:03 BOT le 28 janvier 2015 (GMT -0400)
Juan Mendoza | Change Station
CLOSE
Current Station
Aéroport
Location: Oruro,
Altitude: 12146 ft
Stations météo à proximité

Alt. 12146 ft 17.96 °S, 67.08 °W | Updated 1 hour ago

Scattered Clouds
Nuages épars
45 ° F
Paraît 45 ° F
N
0
Vent Variable Vent de Nord

Aujourd'hui
Haut(e) -- | Bas -- ° F
--% Risque de précip.
Hier
Haut(e) -- | Bas -- ° F
Precip. -- pouce
6:12 AM 7:09 PM
Lune gibbeuse croissante, 64% visible
Pression 30.54 pouce
Visibilité 6.2 Miles terrestres
Nuages Peu 1300 ft
Nuages épars 7000 ft
Point de rosée 41 ° F
Humidité 87%
Précipitations 0.00 pouce
Profondeur de la couche neigeuse Non disponible.
UV 1 sur 12
Pollen Non disponible.
Qualité de l'air Non disponible.
Flu Activity Non disponible.
METAR SLOR 281100Z 00000KT 9999 FEW013 SCT070 07/05 Q1034

More Conditions Fewer Conditions

Pression 30.54 pouce
Visibilité 6.2 Miles terrestres
Nuages Peu 1300 ft
Nuages épars 7000 ft
Point de rosée 41 ° F
Humidité 87%
Précipitations 0.00 pouce
Profondeur de la couche neigeuse Non disponible.
UV 1 sur 12
Pollen Non disponible.
Qualité de l'air Non disponible.
Flu Activity Non disponible.
METAR SLOR 281100Z 00000KT 9999 FEW013 SCT070 07/05 Q1034

More Conditions Fewer Conditions

10-Day Weather Forecast

Almanac

Astronomie

Jan. 28, 2015 Lever Coucher
Temps réel
Crépuscule civil
Crépuscule nautique
Crépuscule astronomique
Lune
Durée de lumière visible
Longueur du jour
Tomorrow will be .
, % of the Moon is Illuminated

Extrêmes aujourd'hui

Country Highs Country Lows

Community

WunderPhotos

Upload Photos

1,791,127 Photos téléchargées !

WunderBlogs® & News

Nearby

Qualité de l'air

  Qualité de l'air Indice de la qualité de l'air Polluant
Not available.

Épaisseur de neige

Station Depth Altitude

Activité sismique

Ville Distance Mag. Time & Date
Minimum magnitude displayed is 2.5.

Températures des eaux côtières

Lieu Température

Stations météo à proximité